Seastreak Highlands — WDE4031 — position and weather

sailwx.info

Track history (hours):
 
Tides and Currents Weather Stations Pressure Air Temp Water Temp Dewpoint Dewpoint Depression Visibility Wind Speed Wind Dir Waves Ship Positions

Seastreak Highlands

More information available from US FCC via Universal Licensing System and Coast Guard Vessel Documentation Center.

Last reported at 2014-Sep-19 21:18 UTC. Time now 2014-Sep-19 22:01 UTC.
Position N 40°42' W 074°00'.

Length 44 m; draft 2 m.

Type: High speed craft. MMSI: 367347670.

Date/timePositionNaut miles runAvg speedWind from/ knotsBaromVisibWave heightAir tempDewpointWater temp
2014-Sep-19 21:18N 40°42' W 074°00'1011.8
2014-Sep-19 20:25N 40°35' W 073°50'11 1.7
2014-Sep-19 13:28N 40°45' W 073°58'11 7.8
2014-Sep-19 12:04N 40°35' W 073°52'1 0.6
2014-Sep-19 10:19N 40°35' W 073°50'11 1.3
2014-Sep-19 01:12N 40°27' W 074°01'7 7.6
2014-Sep-19 00:15N 40°34' W 074°00'4 4.2
2014-Sep-18 23:17N 40°38' W 074°03'6 5.2
2014-Sep-18 22:11N 40°34' W 073°57'8 9.4
2014-Sep-18 21:18N 40°42' W 074°00'10 8.3
2014-Sep-18 20:03N 40°35' W 073°50'1012.0
2014-Sep-18 19:12N 40°41' W 074°01'5 0.8
2014-Sep-18 13:33N 40°45' W 073°58'1111.0
2014-Sep-18 12:34N 40°34' W 073°53'9 9.3
2014-Sep-18 11:33N 40°42' W 074°00'10 9.9
2014-Sep-18 10:30N 40°35' W 073°50'12 1.3
2014-Sep-18 01:16N 40°26' W 074°00'1217.0
2014-Sep-18 00:33N 40°35' W 073°50'1010.3
2014-Sep-17 23:32N 40°42' W 074°00'9 6.6
2014-Sep-17 22:11N 40°34' W 073°56'9 9.5
2014-Sep-17 21:15N 40°42' W 074°00'1110.3
2014-Sep-17 20:14N 40°35' W 073°50'1011.1
2014-Sep-17 19:21N 40°39' W 074°02'4 1.6
2014-Sep-17 17:12N 40°42' W 074°00'3 0.7
2014-Sep-17 13:33N 40°44' W 073°58'11 9.1
2014-Sep-17 12:23N 40°35' W 073°51'1011.2
2014-Sep-17 11:28N 40°42' W 074°00'1011.5
2014-Sep-17 10:33N 40°35' W 073°50'7 0.7
2014-Sep-17 00:17N 40°34' W 073°60'810.8
2014-Sep-16 23:32N 40°42' W 074°00'11 9.4
2014-Sep-16 22:25N 40°35' W 073°50'10 8.4
2014-Sep-16 21:12N 40°40' W 074°02'1 0.8
2014-Sep-16 19:23N 40°39' W 074°02'8 1.2
2014-Sep-16 12:31N 40°35' W 073°52'2 0.9
2014-Sep-16 10:28N 40°35' W 073°50'1212.8
2014-Sep-16 09:33N 40°27' W 074°01'3 0.3
2014-Sep-16 01:29N 40°25' W 073°60'1313.8
2014-Sep-16 00:34N 40°35' W 073°50'1010.1
2014-Sep-15 23:32N 40°42' W 074°00'1110.5
2014-Sep-15 22:32N 40°35' W 073°50'11 8.4
2014-Sep-15 21:15N 40°41' W 074°02'11 9.4
2014-Sep-15 20:07N 40°35' W 073°50'915.4
2014-Sep-15 19:32N 40°35' W 074°02'7 3.4
2014-Sep-15 17:26N 40°42' W 074°00'0 0.0
2014-Sep-15 16:21N 40°42' W 074°00'0 0.0
2014-Sep-15 15:32N 40°42' W 074°00'0 0.0
2014-Sep-15 14:19N 40°42' W 074°00'2 2.3
2014-Sep-15 13:33N 40°43' W 073°58'9 9.2
2014-Sep-15 12:33N 40°35' W 073°52'10 9.8
2014-Sep-15 11:33N 40°42' W 074°01'1110.2
2014-Sep-15 10:30N 40°35' W 073°50'1413.5
2014-Sep-15 09:30N 40°25' W 074°02'2 0.0
2014-Sep-13 18:33N 40°25' W 073°60'1817.0
2014-Sep-13 17:30N 40°42' W 073°60'1718.3
2014-Sep-13 16:33N 40°25' W 074°00'3 2.6
2014-Sep-13 15:33N 40°28' W 074°01'1511.2
2014-Sep-13 14:11N 40°43' W 073°58'1924.0
2014-Sep-13 13:24N 40°25' W 073°60'1815.3
2014-Sep-13 12:15N 40°42' W 074°00'2 2.6
2014-Sep-13 11:33N 40°41' W 074°01'15 1.5
2014-Sep-13 01:19N 40°25' W 074°02'2 2.2
2014-Sep-13 00:32N 40°25' W 073°60'2019.2
2014-Sep-12 23:31N 40°44' W 073°58'1920.0
2014-Sep-12 22:32N 40°25' W 074°00'1814.0
2014-Sep-12 21:17N 40°42' W 073°59'7 9.2
2014-Sep-12 20:31N 40°36' W 074°02'1010.0
2014-Sep-12 19:33N 40°26' W 074°01'18 8.0
2014-Sep-12 17:15N 40°45' W 073°58'0 0.0
2014-Sep-12 14:06N 40°45' W 073°58'3 5.3
2014-Sep-12 13:32N 40°42' W 074°00'10 9.0
2014-Sep-12 12:28N 40°33' W 074°02'3 3.1
2014-Sep-12 11:25N 40°36' W 074°03'12 1.1
2014-Sep-12 00:33N 40°25' W 073°60'2015.4
2014-Sep-11 23:16N 40°44' W 073°58'1 0.1
2014-Sep-11 18:33N 40°45' W 073°58'0 0.0
2014-Sep-11 17:33N 40°45' W 073°58'0 0.0
2014-Sep-11 16:33N 40°45' W 073°58'0 0.0
2014-Sep-11 15:33N 40°45' W 073°58'0 0.0
2014-Sep-11 14:33N 40°45' W 073°58'3 2.9
2014-Sep-11 13:33N 40°42' W 074°00'1312.5
2014-Sep-11 12:33N 40°30' W 074°02'1111.1
2014-Sep-11 11:34N 40°41' W 074°01'1616.0
2014-Sep-11 10:32N 40°25' W 073°60'0 0.4
2014-Sep-11 09:33N 40°25' W 074°00'1 0.2
2014-Sep-11 01:29N 40°25' W 074°02'0 0.0
2014-Sep-11 00:33N 40°25' W 074°02'1919.4
2014-Sep-10 23:34N 40°44' W 073°58'1915.1
2014-Sep-10 22:16N 40°25' W 074°02'1723.6
2014-Sep-10 21:34N 40°42' W 074°01'6 6.3
2014-Sep-10 20:33N 40°36' W 074°02'7 7.2
2014-Sep-10 19:34N 40°29' W 074°02'1616.0
2014-Sep-10 18:33N 40°45' W 073°58'0 0.0
2014-Sep-10 17:33N 40°45' W 073°58'0 0.0
2014-Sep-10 16:33N 40°45' W 073°58'0 0.0
2014-Sep-10 15:33N 40°45' W 073°58'0 0.0
2014-Sep-10 14:33N 40°45' W 073°58'3 3.2
2014-Sep-10 13:33N 40°42' W 074°00'1010.4
2014-Sep-10 12:34N 40°32' W 074°02'8 7.7
2014-Sep-10 11:33N 40°39' W 074°02'1514.8
2014-Sep-10 10:33N 40°25' W 073°60'2 1.8
2014-Sep-10 09:33N 40°25' W 074°02'1 0.1
2014-Sep-10 00:33N 40°25' W 074°01'1918.9
2014-Sep-09 23:34N 40°44' W 073°58'1919.1
2014-Sep-09 22:33N 40°25' W 073°60'1717.2
2014-Sep-09 21:33N 40°42' W 074°01'  
Track history (hours):
 
Tides and Currents Weather Stations Pressure Air Temp Water Temp Dewpoint Dewpoint Depression Visibility Wind Speed Wind Dir Waves Ship Positions

Seastreak Highlands

More information available from US FCC via Universal Licensing System and Coast Guard Vessel Documentation Center.

Last reported at 2014-Sep-19 21:18 UTC. Time now 2014-Sep-19 22:01 UTC.
Position N 40°42' W 074°00'.

Length 44 m; draft 2 m.

Type: High speed craft. MMSI: 367347670.

Date/timePositionNaut miles runAvg speedWind from/ knotsBaromVisibWave heightAir tempDewpointWater temp
2014-Sep-19 21:18N 40°42' W 074°00'1011.8
2014-Sep-19 20:25N 40°35' W 073°50'11 1.7
2014-Sep-19 13:28N 40°45' W 073°58'11 7.8
2014-Sep-19 12:04N 40°35' W 073°52'1 0.6
2014-Sep-19 10:19N 40°35' W 073°50'11 1.3
2014-Sep-19 01:12N 40°27' W 074°01'7 7.6
2014-Sep-19 00:15N 40°34' W 074°00'4 4.2
2014-Sep-18 23:17N 40°38' W 074°03'6 5.2
2014-Sep-18 22:11N 40°34' W 073°57'8 9.4
2014-Sep-18 21:18N 40°42' W 074°00'10 8.3
2014-Sep-18 20:03N 40°35' W 073°50'1012.0
2014-Sep-18 19:12N 40°41' W 074°01'5 0.8
2014-Sep-18 13:33N 40°45' W 073°58'1111.0
2014-Sep-18 12:34N 40°34' W 073°53'9 9.3
2014-Sep-18 11:33N 40°42' W 074°00'10 9.9
2014-Sep-18 10:30N 40°35' W 073°50'12 1.3
2014-Sep-18 01:16N 40°26' W 074°00'1217.0
2014-Sep-18 00:33N 40°35' W 073°50'1010.3
2014-Sep-17 23:32N 40°42' W 074°00'9 6.6
2014-Sep-17 22:11N 40°34' W 073°56'9 9.5
2014-Sep-17 21:15N 40°42' W 074°00'1110.3
2014-Sep-17 20:14N 40°35' W 073°50'1011.1
2014-Sep-17 19:21N 40°39' W 074°02'4 1.6
2014-Sep-17 17:12N 40°42' W 074°00'3 0.7
2014-Sep-17 13:33N 40°44' W 073°58'11 9.1
2014-Sep-17 12:23N 40°35' W 073°51'1011.2
2014-Sep-17 11:28N 40°42' W 074°00'1011.5
2014-Sep-17 10:33N 40°35' W 073°50'7 0.7
2014-Sep-17 00:17N 40°34' W 073°60'810.8
2014-Sep-16 23:32N 40°42' W 074°00'11 9.4
2014-Sep-16 22:25N 40°35' W 073°50'10 8.4
2014-Sep-16 21:12N 40°40' W 074°02'1 0.8
2014-Sep-16 19:23N 40°39' W 074°02'8 1.2
2014-Sep-16 12:31N 40°35' W 073°52'2 0.9
2014-Sep-16 10:28N 40°35' W 073°50'1212.8
2014-Sep-16 09:33N 40°27' W 074°01'3 0.3
2014-Sep-16 01:29N 40°25' W 073°60'1313.8
2014-Sep-16 00:34N 40°35' W 073°50'1010.1
2014-Sep-15 23:32N 40°42' W 074°00'1110.5
2014-Sep-15 22:32N 40°35' W 073°50'11 8.4
2014-Sep-15 21:15N 40°41' W 074°02'11 9.4
2014-Sep-15 20:07N 40°35' W 073°50'915.4
2014-Sep-15 19:32N 40°35' W 074°02'7 3.4
2014-Sep-15 17:26N 40°42' W 074°00'0 0.0
2014-Sep-15 16:21N 40°42' W 074°00'0 0.0
2014-Sep-15 15:32N 40°42' W 074°00'0 0.0
2014-Sep-15 14:19N 40°42' W 074°00'2 2.3
2014-Sep-15 13:33N 40°43' W 073°58'9 9.2
2014-Sep-15 12:33N 40°35' W 073°52'10 9.8
2014-Sep-15 11:33N 40°42' W 074°01'1110.2
2014-Sep-15 10:30N 40°35' W 073°50'1413.5
2014-Sep-15 09:30N 40°25' W 074°02'2 0.0
2014-Sep-13 18:33N 40°25' W 073°60'1817.0
2014-Sep-13 17:30N 40°42' W 073°60'1718.3
2014-Sep-13 16:33N 40°25' W 074°00'3 2.6
2014-Sep-13 15:33N 40°28' W 074°01'1511.2
2014-Sep-13 14:11N 40°43' W 073°58'1924.0
2014-Sep-13 13:24N 40°25' W 073°60'1815.3
2014-Sep-13 12:15N 40°42' W 074°00'2 2.6
2014-Sep-13 11:33N 40°41' W 074°01'15 1.5
2014-Sep-13 01:19N 40°25' W 074°02'2 2.2
2014-Sep-13 00:32N 40°25' W 073°60'2019.2
2014-Sep-12 23:31N 40°44' W 073°58'1920.0
2014-Sep-12 22:32N 40°25' W 074°00'1814.0
2014-Sep-12 21:17N 40°42' W 073°59'7 9.2
2014-Sep-12 20:31N 40°36' W 074°02'1010.0
2014-Sep-12 19:33N 40°26' W 074°01'18 8.0
2014-Sep-12 17:15N 40°45' W 073°58'0 0.0
2014-Sep-12 14:06N 40°45' W 073°58'3 5.3
2014-Sep-12 13:32N 40°42' W 074°00'10 9.0
2014-Sep-12 12:28N 40°33' W 074°02'3 3.1
2014-Sep-12 11:25N 40°36' W 074°03'12 1.1
2014-Sep-12 00:33N 40°25' W 073°60'2015.4
2014-Sep-11 23:16N 40°44' W 073°58'1 0.1
2014-Sep-11 18:33N 40°45' W 073°58'0 0.0
2014-Sep-11 17:33N 40°45' W 073°58'0 0.0
2014-Sep-11 16:33N 40°45' W 073°58'0 0.0
2014-Sep-11 15:33N 40°45' W 073°58'0 0.0
2014-Sep-11 14:33N 40°45' W 073°58'3 2.9
2014-Sep-11 13:33N 40°42' W 074°00'1312.5
2014-Sep-11 12:33N 40°30' W 074°02'1111.1
2014-Sep-11 11:34N 40°41' W 074°01'1616.0
2014-Sep-11 10:32N 40°25' W 073°60'0 0.4
2014-Sep-11 09:33N 40°25' W 074°00'1 0.2
2014-Sep-11 01:29N 40°25' W 074°02'0 0.0
2014-Sep-11 00:33N 40°25' W 074°02'1919.4
2014-Sep-10 23:34N 40°44' W 073°58'1915.1
2014-Sep-10 22:16N 40°25' W 074°02'1723.6
2014-Sep-10 21:34N 40°42' W 074°01'6 6.3
2014-Sep-10 20:33N 40°36' W 074°02'7 7.2
2014-Sep-10 19:34N 40°29' W 074°02'1616.0
2014-Sep-10 18:33N 40°45' W 073°58'0 0.0
2014-Sep-10 17:33N 40°45' W 073°58'0 0.0
2014-Sep-10 16:33N 40°45' W 073°58'0 0.0
2014-Sep-10 15:33N 40°45' W 073°58'0 0.0
2014-Sep-10 14:33N 40°45' W 073°58'3 3.2
2014-Sep-10 13:33N 40°42' W 074°00'1010.4
2014-Sep-10 12:34N 40°32' W 074°02'8 7.7
2014-Sep-10 11:33N 40°39' W 074°02'1514.8
2014-Sep-10 10:33N 40°25' W 073°60'2 1.8
2014-Sep-10 09:33N 40°25' W 074°02'1 0.1
2014-Sep-10 00:33N 40°25' W 074°01'1918.9
2014-Sep-09 23:34N 40°44' W 073°58'1919.1
2014-Sep-09 22:33N 40°25' W 073°60'1717.2
2014-Sep-09 21:33N 40°42' W 074°01'  

Dump ship's entire track history